createdAt,value
2023-05-23T00:00:15.169Z,0.94
2023-05-23T00:01:16.161Z,0.93
2023-05-23T00:02:16.318Z,0.93
2023-05-23T00:03:16.404Z,0.93
2023-05-23T00:04:16.206Z,0.93
2023-05-23T00:05:15.142Z,0.94
2023-05-23T00:06:16.143Z,0.94
2023-05-23T00:07:15.171Z,0.93
2023-05-23T00:08:15.253Z,0.93
2023-05-23T00:09:16.299Z,0.93
2023-05-23T00:10:15.370Z,0.94
2023-05-23T00:11:16.420Z,0.93
2023-05-23T00:12:16.496Z,0.92
2023-05-23T00:13:15.529Z,0.93
2023-05-23T00:14:15.583Z,0.93
2023-05-23T00:15:16.619Z,0.92
2023-05-23T00:16:16.698Z,0.93
2023-05-23T00:17:16.753Z,0.93
2023-05-23T00:18:16.951Z,0.94
2023-05-23T00:19:15.916Z,0.93
2023-05-23T00:20:15.951Z,0.93
2023-05-23T00:21:16.027Z,0.93
2023-05-23T00:22:16.057Z,0.93
2023-05-23T00:23:16.132Z,0.93
2023-05-23T00:24:17.149Z,0.93
2023-05-23T00:25:17.221Z,0.92
2023-05-23T00:26:16.274Z,0.94
2023-05-23T00:27:17.334Z,0.93
2023-05-23T00:28:16.374Z,0.93
2023-05-23T00:29:17.433Z,0.94
2023-05-23T00:30:16.443Z,0.94
2023-05-23T00:31:16.548Z,0.93
2023-05-23T00:32:17.538Z,0.92
2023-05-23T00:33:17.605Z,0.93
2023-05-23T00:34:18.054Z,0.93
2023-05-23T00:35:16.650Z,0.94
2023-05-23T00:36:17.707Z,0.92
2023-05-23T00:37:16.776Z,0.92
2023-05-23T00:38:17.844Z,0.92
2023-05-23T00:39:17.924Z,0.93
2023-05-23T00:40:17.968Z,0.93
2023-05-23T00:41:18.020Z,0.93
2023-05-23T00:42:18.080Z,0.92
2023-05-23T00:43:17.134Z,0.91
2023-05-23T00:44:18.223Z,0.93
2023-05-23T00:45:18.250Z,0.92
2023-05-23T00:46:18.338Z,0.93
2023-05-23T00:47:18.383Z,0.93
2023-05-23T00:48:18.417Z,0.93
2023-05-23T00:49:18.483Z,0.92
2023-05-23T00:50:17.670Z,0.94
2023-05-23T00:51:18.592Z,0.92
2023-05-23T00:52:18.650Z,0.91
2023-05-23T00:53:18.721Z,0.91
2023-05-23T00:54:17.752Z,0.93
2023-05-23T00:55:17.786Z,0.90
2023-05-23T00:56:18.824Z,0.93
2023-05-23T00:57:17.884Z,0.92
2023-05-23T00:58:18.922Z,0.91
2023-05-23T00:59:18.975Z,0.92
2023-05-23T01:00:19.036Z,0.91
2023-05-23T01:01:18.118Z,0.92
2023-05-23T01:02:19.174Z,0.91
2023-05-23T01:03:19.237Z,0.93
2023-05-23T01:04:19.256Z,0.92
2023-05-23T01:05:19.443Z,0.92
2023-05-23T01:06:18.340Z,0.93
2023-05-23T01:07:19.381Z,0.92
2023-05-23T01:08:18.454Z,0.94
2023-05-23T01:09:18.491Z,0.90
2023-05-23T01:10:19.545Z,0.91
2023-05-23T01:11:19.581Z,0.93
2023-05-23T01:12:18.653Z,0.92
2023-05-23T01:13:18.681Z,0.90
2023-05-23T01:14:19.706Z,0.93
2023-05-23T01:15:18.759Z,0.93
2023-05-23T01:16:19.903Z,0.91
2023-05-23T01:17:19.902Z,0.91
2023-05-23T01:18:19.930Z,0.91
2023-05-23T01:19:19.041Z,0.92
2023-05-23T01:20:20.048Z,0.93
2023-05-23T01:21:20.205Z,0.93
2023-05-23T01:22:19.138Z,0.91
2023-05-23T01:23:19.187Z,0.93
2023-05-23T01:24:19.232Z,0.92
2023-05-23T01:25:20.269Z,0.91
2023-05-23T01:26:20.351Z,0.92
2023-05-23T01:27:19.395Z,0.92
2023-05-23T01:28:20.430Z,0.92
2023-05-23T01:29:20.472Z,0.92
2023-05-23T01:30:20.509Z,0.92
2023-05-23T01:31:19.590Z,0.92
2023-05-23T01:32:20.553Z,0.90
2023-05-23T01:33:19.615Z,0.92
2023-05-23T01:34:20.709Z,0.90
2023-05-23T01:35:20.709Z,0.92
2023-05-23T01:36:19.773Z,0.92
2023-05-23T01:37:19.961Z,0.92
2023-05-23T01:38:20.859Z,0.90
2023-05-23T01:39:20.918Z,0.91
2023-05-23T01:40:20.974Z,0.93
2023-05-23T01:41:20.022Z,0.91
2023-05-23T01:42:20.069Z,0.91
2023-05-23T01:43:21.132Z,0.89
2023-05-23T01:44:21.250Z,0.91
2023-05-23T01:45:21.079Z,0.90
2023-05-23T01:46:21.188Z,0.92
2023-05-23T01:47:21.159Z,0.91
2023-05-23T01:48:20.224Z,0.92
2023-05-23T01:49:20.226Z,0.91
2023-05-23T01:50:21.253Z,0.91
2023-05-23T01:51:20.289Z,0.91
2023-05-23T01:52:20.352Z,0.92
2023-05-23T01:53:20.490Z,0.90
2023-05-23T01:54:20.403Z,0.91
2023-05-23T01:55:21.423Z,0.91
2023-05-23T01:56:20.465Z,0.92
2023-05-23T01:57:21.530Z,0.91
2023-05-23T01:58:20.515Z,0.91
2023-05-23T01:59:20.534Z,0.91
2023-05-23T02:00:20.565Z,0.90
2023-05-23T02:01:21.610Z,0.91
2023-05-23T02:02:20.660Z,0.91
2023-05-23T02:03:20.714Z,0.90
2023-05-23T02:04:20.538Z,0.91
2023-05-23T02:05:20.542Z,0.90
2023-05-23T02:06:21.557Z,0.90
2023-05-23T02:07:21.565Z,0.90
2023-05-23T02:08:21.548Z,0.89
2023-05-23T02:09:21.668Z,0.91
2023-05-23T02:10:21.589Z,0.90
2023-05-23T02:11:21.600Z,0.90
2023-05-23T02:12:21.598Z,0.90
2023-05-23T02:13:20.623Z,0.90
2023-05-23T02:14:21.624Z,0.90
2023-05-23T02:15:20.657Z,0.90
2023-05-23T02:16:20.724Z,0.89
2023-05-23T02:17:20.725Z,0.91
2023-05-23T02:18:21.742Z,0.88
2023-05-23T02:19:21.860Z,0.89
2023-05-23T02:20:20.835Z,0.90
2023-05-23T02:21:20.869Z,0.90
2023-05-23T02:22:20.957Z,0.87
2023-05-23T02:23:20.925Z,0.91
2023-05-23T02:24:21.953Z,0.89
2023-05-23T02:25:22.102Z,0.90
2023-05-23T02:26:21.009Z,0.91
2023-05-23T02:27:21.044Z,0.90
2023-05-23T02:28:21.145Z,0.91
2023-05-23T02:29:21.054Z,0.90
2023-05-23T02:30:22.087Z,0.90
2023-05-23T02:31:22.177Z,0.89
2023-05-23T02:32:22.150Z,0.90
2023-05-23T02:33:22.169Z,0.89
2023-05-23T02:34:21.176Z,0.90
2023-05-23T02:35:21.192Z,0.88
2023-05-23T02:36:22.190Z,0.89
2023-05-23T02:37:22.227Z,0.90
2023-05-23T02:38:22.272Z,0.89
2023-05-23T02:39:21.256Z,0.88
2023-05-23T02:40:22.261Z,0.88
2023-05-23T02:41:21.375Z,0.88
2023-05-23T02:42:22.267Z,0.89
2023-05-23T02:43:21.267Z,0.90
2023-05-23T02:44:21.266Z,0.90
2023-05-23T02:45:22.272Z,0.90
2023-05-23T02:46:22.288Z,0.90
2023-05-23T02:47:22.325Z,0.89
2023-05-23T02:48:22.256Z,0.89
2023-05-23T02:49:22.266Z,0.90
2023-05-23T02:50:22.260Z,0.89
2023-05-23T02:51:22.268Z,0.90
2023-05-23T02:52:21.257Z,0.89
2023-05-23T02:53:22.247Z,0.88
2023-05-23T02:54:22.229Z,0.88
2023-05-23T02:55:22.239Z,0.90
2023-05-23T02:56:22.334Z,0.88
2023-05-23T02:57:22.358Z,0.91
2023-05-23T02:58:22.273Z,0.89
2023-05-23T02:59:22.236Z,0.88
2023-05-23T03:00:21.267Z,0.88
2023-05-23T03:01:21.247Z,0.89
2023-05-23T03:02:21.239Z,0.89
2023-05-23T03:03:22.271Z,0.89
2023-05-23T03:04:22.245Z,0.89
2023-05-23T03:05:22.216Z,0.88
2023-05-23T03:06:21.227Z,0.88
2023-05-23T03:07:28.168Z,0.89
2023-05-23T03:08:22.205Z,0.90
2023-05-23T03:09:21.196Z,0.90
2023-05-23T03:10:22.182Z,0.90
2023-05-23T03:11:22.189Z,0.89
2023-05-23T03:12:21.171Z,0.89
2023-05-23T03:13:21.327Z,0.88
2023-05-23T03:14:21.163Z,0.89
2023-05-23T03:15:22.155Z,0.88
2023-05-23T03:16:22.203Z,0.90
2023-05-23T03:17:22.190Z,0.88
2023-05-23T03:18:22.135Z,0.88
2023-05-23T03:19:22.165Z,0.87
2023-05-23T03:20:21.120Z,0.88
2023-05-23T03:21:22.106Z,0.88
2023-05-23T03:22:21.109Z,0.88
2023-05-23T03:23:21.105Z,0.88
2023-05-23T03:24:21.172Z,0.90
2023-05-23T03:25:22.122Z,0.90
2023-05-23T03:26:22.076Z,0.89
2023-05-23T03:27:21.070Z,0.89
2023-05-23T03:28:21.071Z,0.88
2023-05-23T03:29:22.185Z,0.89
2023-05-23T03:30:21.054Z,0.89
2023-05-23T03:31:22.072Z,0.89
2023-05-23T03:32:22.052Z,0.88
2023-05-23T03:33:22.027Z,0.89
2023-05-23T03:34:21.023Z,0.89
2023-05-23T03:35:21.020Z,0.89
2023-05-23T03:36:22.022Z,0.88
2023-05-23T03:37:22.035Z,0.88
2023-05-23T03:38:22.010Z,0.89
2023-05-23T03:39:21.993Z,0.89
2023-05-23T03:40:20.988Z,0.88
2023-05-23T03:41:21.981Z,0.89
2023-05-23T03:42:22.001Z,0.88
2023-05-23T03:43:20.993Z,0.89
2023-05-23T03:44:21.963Z,0.88
2023-05-23T03:45:22.093Z,0.88
2023-05-23T03:46:21.031Z,0.89
2023-05-23T03:47:20.948Z,0.88
2023-05-23T03:48:20.964Z,0.87
2023-05-23T03:49:21.928Z,0.87
2023-05-23T03:50:20.924Z,0.89
2023-05-23T03:51:21.930Z,0.90
2023-05-23T03:52:21.919Z,0.87
2023-05-23T03:53:21.905Z,0.87
2023-05-23T03:54:21.895Z,0.87
2023-05-23T03:55:21.891Z,0.88
2023-05-23T03:56:20.893Z,0.89
2023-05-23T03:57:20.877Z,0.88
2023-05-23T03:58:20.869Z,0.88
2023-05-23T03:59:20.878Z,0.88
2023-05-23T04:00:20.861Z,0.88
2023-05-23T04:01:20.982Z,0.88
2023-05-23T04:02:21.965Z,0.87
2023-05-23T04:03:21.985Z,0.87
2023-05-23T04:04:21.914Z,0.87
2023-05-23T04:05:20.830Z,0.87
2023-05-23T04:06:21.829Z,0.86
2023-05-23T04:07:21.095Z,0.86
2023-05-23T04:08:21.813Z,0.88
2023-05-23T04:09:21.800Z,0.86
2023-05-23T04:10:20.825Z,0.88
2023-05-23T04:11:20.799Z,0.88
2023-05-23T04:12:21.781Z,0.88
2023-05-23T04:13:21.776Z,0.87
2023-05-23T04:14:21.767Z,0.86
2023-05-23T04:15:21.840Z,0.87
2023-05-23T04:16:20.765Z,0.86
2023-05-23T04:17:21.975Z,0.85
2023-05-23T04:18:20.745Z,0.87
2023-05-23T04:19:20.735Z,0.86
2023-05-23T04:20:20.721Z,0.87
2023-05-23T04:21:21.734Z,0.87
2023-05-23T04:22:21.737Z,0.87
2023-05-23T04:23:20.745Z,0.86
2023-05-23T04:24:21.724Z,0.86
2023-05-23T04:25:20.698Z,0.87
2023-05-23T04:26:20.684Z,0.87
2023-05-23T04:27:20.704Z,0.88
2023-05-23T04:28:20.689Z,0.86
2023-05-23T04:29:21.692Z,0.88
2023-05-23T04:30:20.669Z,0.86
2023-05-23T04:31:20.722Z,0.87
2023-05-23T04:32:21.680Z,0.86
2023-05-23T04:33:20.784Z,0.85
2023-05-23T04:34:21.652Z,0.88
2023-05-23T04:35:21.644Z,0.87
2023-05-23T04:36:21.634Z,0.86
2023-05-23T04:37:21.631Z,0.87
2023-05-23T04:38:21.625Z,0.88
2023-05-23T04:39:20.603Z,0.89
2023-05-23T04:40:20.598Z,0.87
2023-05-23T04:41:21.623Z,0.86
2023-05-23T04:42:21.586Z,0.88
2023-05-23T04:43:21.594Z,0.86
2023-05-23T04:44:20.573Z,0.88
2023-05-23T04:45:21.569Z,0.88
2023-05-23T04:46:20.631Z,0.85
2023-05-23T04:47:20.551Z,0.86
2023-05-23T04:48:21.576Z,0.88
2023-05-23T04:49:20.681Z,0.85
2023-05-23T04:50:21.540Z,0.86
2023-05-23T04:51:21.539Z,0.86
2023-05-23T04:52:21.533Z,0.86
2023-05-23T04:53:21.511Z,0.87
2023-05-23T04:54:20.517Z,0.88
2023-05-23T04:55:21.527Z,0.88
2023-05-23T04:56:22.075Z,0.86
2023-05-23T04:57:21.500Z,0.86
2023-05-23T04:58:21.502Z,0.87
2023-05-23T04:59:21.491Z,0.86
2023-05-23T05:00:21.515Z,0.85
2023-05-23T05:01:22.244Z,0.85
2023-05-23T05:02:22.082Z,0.85
2023-05-23T05:03:20.461Z,0.85
2023-05-23T05:04:20.492Z,0.86
2023-05-23T05:05:21.577Z,0.86
2023-05-23T05:06:21.482Z,0.89
2023-05-23T05:07:20.438Z,0.90
2023-05-23T05:08:21.435Z,0.88
2023-05-23T05:09:21.416Z,0.88
2023-05-23T05:10:21.411Z,0.87
2023-05-23T05:11:21.398Z,0.87
2023-05-23T05:12:20.420Z,0.87
2023-05-23T05:13:20.398Z,0.85
2023-05-23T05:14:20.387Z,0.87
2023-05-23T05:15:20.384Z,0.87
2023-05-23T05:16:20.457Z,0.88
2023-05-23T05:17:21.421Z,0.87
2023-05-23T05:18:21.353Z,0.87
2023-05-23T05:19:20.360Z,0.87
2023-05-23T05:20:21.385Z,0.86
2023-05-23T05:21:21.480Z,0.86
2023-05-23T05:22:20.337Z,0.87
2023-05-23T05:23:20.301Z,0.86
2023-05-23T05:24:21.304Z,0.87
2023-05-23T05:25:20.304Z,0.86
2023-05-23T05:26:21.307Z,0.86
2023-05-23T05:27:21.295Z,0.87
2023-05-23T05:28:21.282Z,0.85
2023-05-23T05:29:21.314Z,0.85
2023-05-23T05:30:21.284Z,0.84
2023-05-23T05:31:21.281Z,0.87
2023-05-23T05:32:20.337Z,0.86
2023-05-23T05:33:20.266Z,0.86
2023-05-23T05:34:21.235Z,0.89
2023-05-23T05:35:21.256Z,0.87
2023-05-23T05:36:21.235Z,0.86
2023-05-23T05:37:21.399Z,0.86
2023-05-23T05:38:21.251Z,0.86
2023-05-23T05:39:21.224Z,0.87
2023-05-23T05:40:21.242Z,0.87
2023-05-23T05:41:21.265Z,0.88
2023-05-23T05:42:21.205Z,0.87
2023-05-23T05:43:21.190Z,0.88
2023-05-23T05:44:20.271Z,0.90
2023-05-23T05:45:21.324Z,0.90
2023-05-23T05:46:21.369Z,0.92
2023-05-23T05:47:21.174Z,0.92
2023-05-23T05:48:20.156Z,0.92
2023-05-23T05:49:21.149Z,0.92
2023-05-23T05:50:21.149Z,0.94
2023-05-23T05:51:21.155Z,0.96
2023-05-23T05:52:21.150Z,0.99
2023-05-23T05:53:21.245Z,0.96
2023-05-23T05:54:21.161Z,0.99
2023-05-23T05:55:21.130Z,0.98
2023-05-23T05:56:21.135Z,1.04
2023-05-23T05:57:21.137Z,1.03
2023-05-23T05:58:21.141Z,1.07
2023-05-23T05:59:21.225Z,1.08
2023-05-23T06:00:21.088Z,1.11
2023-05-23T06:01:21.105Z,1.16
2023-05-23T06:02:20.693Z,1.16
2023-05-23T06:03:21.147Z,1.19
2023-05-23T06:04:21.137Z,1.22
2023-05-23T06:05:21.054Z,1.27
2023-05-23T06:06:21.051Z,1.28
2023-05-23T06:07:21.094Z,1.34
2023-05-23T06:08:20.328Z,1.40
2023-05-23T06:09:20.397Z,1.45
2023-05-23T06:10:20.472Z,1.53
2023-05-23T06:11:20.254Z,1.59
2023-05-23T06:12:21.317Z,1.61
2023-05-23T06:13:21.299Z,1.65
2023-05-23T06:14:21.419Z,1.65
2023-05-23T06:15:21.552Z,1.73
2023-05-23T06:16:20.681Z,1.79
2023-05-23T06:17:21.853Z,1.83
2023-05-23T06:18:21.645Z,1.86
2023-05-23T06:19:21.663Z,1.93
2023-05-23T06:20:21.574Z,1.98
2023-05-23T06:21:20.532Z,1.99
2023-05-23T06:22:21.577Z,2.02
2023-05-23T06:23:21.549Z,2.10
2023-05-23T06:24:20.659Z,2.10
2023-05-23T06:25:21.648Z,2.17
2023-05-23T06:26:21.572Z,2.18
2023-05-23T06:27:27.502Z,2.22
2023-05-23T06:28:20.459Z,2.23
2023-05-23T06:29:21.449Z,2.25
2023-05-23T06:30:21.462Z,2.30
2023-05-23T06:31:21.469Z,2.37
2023-05-23T06:32:21.481Z,2.53
2023-05-23T06:33:21.433Z,2.64
2023-05-23T06:34:21.425Z,2.69
2023-05-23T06:35:20.409Z,2.68
2023-05-23T06:36:21.419Z,2.75
2023-05-23T06:37:21.473Z,2.78
2023-05-23T06:38:21.401Z,2.87
2023-05-23T06:39:20.380Z,2.91
2023-05-23T06:40:20.394Z,3.02
2023-05-23T06:41:20.513Z,3.06
2023-05-23T06:42:21.371Z,3.12
2023-05-23T06:43:21.369Z,3.15
2023-05-23T06:44:20.365Z,3.17
2023-05-23T06:45:21.359Z,3.40
2023-05-23T06:46:21.390Z,3.32
2023-05-23T06:47:21.370Z,3.37
2023-05-23T06:48:21.320Z,3.38
2023-05-23T06:49:21.312Z,3.49
2023-05-23T06:50:21.321Z,3.54
2023-05-23T06:51:21.368Z,3.77
2023-05-23T06:52:20.291Z,3.80
2023-05-23T06:53:21.562Z,3.71
2023-05-23T06:54:21.283Z,3.71
2023-05-23T06:55:21.369Z,4.01
2023-05-23T06:56:21.413Z,4.65
2023-05-23T06:57:20.584Z,4.68
2023-05-23T06:58:20.574Z,4.59
2023-05-23T06:59:21.578Z,4.72
2023-05-23T07:00:20.626Z,4.64
2023-05-23T07:01:21.670Z,4.53
2023-05-23T07:02:20.714Z,4.41
2023-05-23T07:03:21.666Z,4.32
2023-05-23T07:04:21.646Z,4.42
2023-05-23T07:05:21.700Z,4.24
2023-05-23T07:06:20.690Z,4.40
2023-05-23T07:07:20.649Z,4.40
2023-05-23T07:08:20.661Z,4.23
2023-05-23T07:09:21.671Z,4.26
2023-05-23T07:10:21.677Z,4.17
2023-05-23T07:11:20.697Z,4.17
2023-05-23T07:12:20.706Z,4.24
2023-05-23T07:13:21.823Z,4.18
2023-05-23T07:14:21.693Z,4.12
2023-05-23T07:15:20.714Z,4.15
2023-05-23T07:16:20.762Z,4.18
2023-05-23T07:17:20.835Z,4.01
2023-05-23T07:18:21.738Z,4.02
2023-05-23T07:19:20.784Z,4.08
2023-05-23T07:20:20.757Z,4.15
2023-05-23T07:21:21.763Z,4.12
2023-05-23T07:22:21.772Z,3.98
2023-05-23T07:23:21.829Z,4.03
2023-05-23T07:24:22.855Z,3.97
2023-05-23T07:25:20.819Z,4.21
2023-05-23T07:26:21.791Z,4.17
2023-05-23T07:27:21.790Z,4.07
2023-05-23T07:28:20.781Z,4.06
2023-05-23T07:29:21.919Z,4.10
2023-05-23T07:30:21.781Z,3.96
2023-05-23T07:31:21.892Z,3.95
2023-05-23T07:32:21.770Z,3.95
2023-05-23T07:33:21.786Z,3.96
2023-05-23T07:34:21.745Z,3.89
2023-05-23T07:35:21.755Z,3.95
2023-05-23T07:36:21.748Z,3.92
2023-05-23T07:37:21.748Z,3.83
2023-05-23T07:38:21.743Z,3.94
2023-05-23T07:39:20.727Z,3.80
2023-05-23T07:40:20.725Z,3.87
2023-05-23T07:41:20.733Z,3.83
2023-05-23T07:42:21.694Z,3.79
2023-05-23T07:43:21.697Z,3.77
2023-05-23T07:44:24.655Z,3.76
2023-05-23T07:45:21.691Z,3.77
2023-05-23T07:46:21.717Z,3.78
2023-05-23T07:47:21.747Z,3.81
2023-05-23T07:48:22.109Z,3.88
2023-05-23T07:49:21.671Z,3.97
2023-05-23T07:50:21.660Z,3.87
2023-05-23T07:51:21.660Z,3.85
2023-05-23T07:52:20.639Z,3.69
2023-05-23T07:53:22.098Z,3.76
2023-05-23T07:54:21.638Z,3.78
2023-05-23T07:55:21.609Z,3.70
2023-05-23T07:56:20.621Z,3.66
2023-05-23T07:57:20.609Z,3.65
2023-05-23T07:58:20.596Z,3.65
2023-05-23T07:59:20.582Z,3.63
2023-05-23T08:00:21.586Z,3.58
2023-05-23T08:01:20.600Z,3.59
2023-05-23T08:02:20.630Z,3.50
2023-05-23T08:03:21.630Z,3.53
2023-05-23T08:04:21.599Z,3.53
2023-05-23T08:05:21.537Z,3.59
2023-05-23T08:06:20.532Z,3.49
2023-05-23T08:07:21.539Z,3.47
2023-05-23T08:08:21.523Z,3.45
2023-05-23T08:09:21.532Z,3.43
2023-05-23T08:10:21.538Z,3.47
2023-05-23T08:11:20.524Z,3.49
2023-05-23T08:12:20.564Z,3.39
2023-05-23T08:13:21.577Z,3.44
2023-05-23T08:14:20.573Z,3.36
2023-05-23T08:15:21.592Z,3.39
2023-05-23T08:16:21.703Z,3.40
2023-05-23T08:17:20.840Z,3.35
2023-05-23T08:18:21.744Z,3.30
2023-05-23T08:19:21.784Z,3.36
2023-05-23T08:20:21.775Z,3.31
2023-05-23T08:21:20.800Z,3.24
2023-05-23T08:22:21.830Z,3.33
2023-05-23T08:23:20.867Z,3.27
2023-05-23T08:24:20.872Z,3.30
2023-05-23T08:25:21.896Z,3.35
2023-05-23T08:26:20.931Z,3.24
2023-05-23T08:27:20.936Z,3.22
2023-05-23T08:28:21.984Z,3.22
2023-05-23T08:29:22.031Z,3.24
2023-05-23T08:30:22.090Z,3.21
2023-05-23T08:31:22.104Z,3.15
2023-05-23T08:32:22.271Z,3.17
2023-05-23T08:33:21.260Z,3.18
2023-05-23T08:34:22.221Z,3.11
2023-05-23T08:35:21.250Z,3.19
2023-05-23T08:36:22.292Z,3.15
2023-05-23T08:37:22.330Z,3.15
2023-05-23T08:38:22.352Z,3.15
2023-05-23T08:39:22.385Z,3.11
2023-05-23T08:40:21.603Z,3.07
2023-05-23T08:41:22.469Z,3.18
2023-05-23T08:42:22.515Z,3.06
2023-05-23T08:43:22.627Z,3.26
2023-05-23T08:44:22.110Z,3.31
2023-05-23T08:45:21.607Z,3.23
2023-05-23T08:46:22.644Z,3.19
2023-05-23T08:47:21.643Z,3.20
2023-05-23T08:48:22.650Z,3.18
2023-05-23T08:49:22.699Z,3.22
2023-05-23T08:50:23.420Z,3.27
2023-05-23T08:51:22.629Z,3.28
2023-05-23T08:52:22.646Z,3.40
2023-05-23T08:53:22.719Z,3.38
2023-05-23T08:54:22.653Z,3.42
2023-05-23T08:55:22.684Z,3.41
2023-05-23T08:56:22.672Z,3.41
2023-05-23T08:57:21.702Z,3.45
2023-05-23T08:58:22.131Z,3.50
2023-05-23T08:59:22.730Z,3.51
2023-05-23T09:00:22.732Z,3.49
2023-05-23T09:01:22.772Z,3.48
2023-05-23T09:02:22.826Z,3.38
2023-05-23T09:03:21.719Z,3.39
2023-05-23T09:04:21.733Z,3.39
2023-05-23T09:05:21.808Z,3.46
2023-05-23T09:06:22.730Z,3.46
2023-05-23T09:07:22.752Z,3.36
2023-05-23T09:08:22.749Z,3.34
2023-05-23T09:09:21.740Z,3.40
2023-05-23T09:10:21.740Z,3.36
2023-05-23T09:11:22.727Z,3.42
2023-05-23T09:12:22.733Z,3.34
2023-05-23T09:13:22.760Z,3.30
2023-05-23T09:14:21.766Z,3.23
2023-05-23T09:15:22.746Z,3.27
2023-05-23T09:16:22.924Z,3.24
2023-05-23T09:17:21.812Z,3.26
2023-05-23T09:18:21.794Z,3.24
2023-05-23T09:19:22.846Z,3.21
2023-05-23T09:20:21.839Z,3.24
2023-05-23T09:21:22.841Z,3.25
2023-05-23T09:22:22.821Z,3.27
2023-05-23T09:23:22.839Z,3.19
2023-05-23T09:24:21.861Z,3.26
2023-05-23T09:25:22.866Z,3.26
2023-05-23T09:26:22.877Z,3.25
2023-05-23T09:27:22.887Z,3.21
2023-05-23T09:28:22.888Z,3.16
2023-05-23T09:29:22.902Z,3.20
2023-05-23T09:30:22.904Z,3.17
2023-05-23T09:31:22.976Z,3.15
2023-05-23T09:32:22.073Z,3.19
2023-05-23T09:33:22.975Z,3.19
2023-05-23T09:34:21.962Z,3.08
2023-05-23T09:35:21.973Z,3.11
2023-05-23T09:36:21.999Z,3.16
2023-05-23T09:37:23.025Z,3.09
2023-05-23T09:38:22.047Z,3.08
2023-05-23T09:39:23.036Z,3.13
2023-05-23T09:40:23.431Z,3.05
2023-05-23T09:41:22.041Z,3.00
2023-05-23T09:42:23.111Z,3.03
2023-05-23T09:43:22.091Z,3.08
2023-05-23T09:44:22.110Z,2.99
2023-05-23T09:45:22.125Z,3.07
2023-05-23T09:46:23.276Z,3.05
2023-05-23T09:47:22.292Z,3.01
2023-05-23T09:48:23.653Z,3.19
2023-05-23T09:49:23.178Z,3.10
2023-05-23T09:50:22.178Z,3.09
2023-05-23T09:51:23.211Z,2.99
2023-05-23T09:52:23.195Z,3.06
2023-05-23T09:53:23.209Z,2.94
2023-05-23T09:54:22.145Z,3.03
2023-05-23T09:55:23.167Z,3.01
2023-05-23T09:56:23.146Z,2.98
2023-05-23T09:57:23.148Z,2.99
2023-05-23T09:58:23.146Z,2.91
2023-05-23T09:59:23.149Z,2.93
2023-05-23T10:00:23.161Z,2.95
2023-05-23T10:01:23.208Z,2.87
2023-05-23T10:02:28.662Z,2.91
2023-05-23T10:03:22.124Z,2.92
2023-05-23T10:04:23.165Z,2.92
2023-05-23T10:05:23.121Z,2.95
2023-05-23T10:06:23.126Z,2.94
2023-05-23T10:07:23.173Z,2.98
2023-05-23T10:08:22.125Z,2.99
2023-05-23T10:09:23.136Z,2.93
2023-05-23T10:10:23.090Z,2.89
2023-05-23T10:11:23.090Z,2.87
2023-05-23T10:12:23.091Z,2.84
2023-05-23T10:13:22.085Z,2.84
2023-05-23T10:14:22.073Z,2.86
2023-05-23T10:15:23.086Z,2.79
2023-05-23T10:16:23.061Z,2.81
2023-05-23T10:17:23.083Z,2.80
2023-05-23T10:18:22.037Z,2.76
2023-05-23T10:19:22.080Z,2.81
2023-05-23T10:20:23.049Z,2.79
2023-05-23T10:21:23.035Z,2.77
2023-05-23T10:22:23.028Z,2.78
2023-05-23T10:23:22.022Z,2.77
2023-05-23T10:24:23.001Z,2.75
2023-05-23T10:25:22.020Z,2.77
2023-05-23T10:26:22.988Z,2.76
2023-05-23T10:27:22.981Z,2.75
2023-05-23T10:28:27.152Z,2.73
2023-05-23T10:29:22.957Z,2.74
2023-05-23T10:30:22.949Z,2.74
2023-05-23T10:31:22.998Z,2.75
2023-05-23T10:32:22.998Z,2.75
2023-05-23T10:33:21.987Z,2.76
2023-05-23T10:34:22.987Z,2.72
2023-05-23T10:35:23.019Z,2.68
2023-05-23T10:36:23.021Z,2.71
2023-05-23T10:37:23.033Z,2.70
2023-05-23T10:38:22.030Z,2.73
2023-05-23T10:39:22.016Z,2.70
2023-05-23T10:40:22.998Z,2.64
2023-05-23T10:41:23.036Z,2.62
2023-05-23T10:42:23.019Z,2.63
2023-05-23T10:43:23.166Z,2.64
2023-05-23T10:44:23.086Z,2.69
2023-05-23T10:45:22.159Z,2.68
2023-05-23T10:46:22.338Z,2.63
2023-05-23T10:47:22.301Z,2.63
2023-05-23T10:48:22.318Z,2.65
2023-05-23T10:49:22.349Z,2.64
2023-05-23T10:50:24.162Z,2.65
2023-05-23T10:51:22.473Z,2.63
2023-05-23T10:52:22.534Z,2.65
2023-05-23T10:53:22.587Z,2.66
2023-05-23T10:54:22.641Z,2.60
2023-05-23T10:55:23.687Z,2.63
2023-05-23T10:56:22.735Z,2.65
2023-05-23T10:57:23.870Z,2.57
2023-05-23T10:58:23.826Z,2.60
2023-05-23T10:59:23.895Z,2.57
2023-05-23T11:00:23.930Z,2.61
2023-05-23T11:01:24.226Z,2.59
2023-05-23T11:02:24.099Z,2.60
2023-05-23T11:03:23.110Z,2.58
2023-05-23T11:04:23.176Z,2.58
2023-05-23T11:05:23.292Z,2.56
2023-05-23T11:06:23.187Z,2.53
2023-05-23T11:07:23.219Z,2.58
2023-05-23T11:08:29.574Z,2.58
2023-05-23T11:09:24.277Z,2.59
2023-05-23T11:10:24.247Z,2.60
2023-05-23T11:11:24.242Z,2.60
2023-05-23T11:12:23.212Z,2.53
2023-05-23T11:13:23.260Z,2.58
2023-05-23T11:14:24.211Z,2.54
2023-05-23T11:15:24.194Z,2.57
2023-05-23T11:16:23.299Z,2.54
2023-05-23T11:17:24.283Z,2.48
2023-05-23T11:18:24.187Z,2.50
2023-05-23T11:19:24.222Z,2.48
2023-05-23T11:20:24.165Z,2.48
2023-05-23T11:21:23.158Z,2.52
2023-05-23T11:22:24.148Z,2.48
2023-05-23T11:23:24.227Z,2.48
2023-05-23T11:24:23.168Z,2.48
2023-05-23T11:25:23.139Z,2.43
2023-05-23T11:26:23.130Z,2.48
2023-05-23T11:27:24.114Z,2.44
2023-05-23T11:28:24.127Z,2.42
2023-05-23T11:29:23.133Z,2.39
2023-05-23T11:30:24.093Z,2.43
2023-05-23T11:31:24.121Z,2.40
2023-05-23T11:32:23.142Z,2.42
2023-05-23T11:33:23.102Z,2.42
2023-05-23T11:34:24.070Z,2.37
2023-05-23T11:35:24.079Z,2.38
2023-05-23T11:36:23.085Z,2.35
2023-05-23T11:37:25.935Z,2.35
2023-05-23T11:38:24.182Z,2.35
2023-05-23T11:39:24.109Z,2.36
2023-05-23T11:40:23.040Z,2.35
2023-05-23T11:41:23.036Z,2.36
2023-05-23T11:42:24.032Z,2.38
2023-05-23T11:43:23.031Z,2.36
2023-05-23T11:44:24.017Z,2.33
2023-05-23T11:45:23.033Z,2.31
2023-05-23T11:46:23.028Z,2.35
2023-05-23T11:47:24.080Z,2.33
2023-05-23T11:48:23.008Z,2.33
2023-05-23T11:49:23.992Z,2.31
2023-05-23T11:50:22.970Z,2.31
2023-05-23T11:51:22.984Z,2.33
2023-05-23T11:52:22.961Z,2.33
2023-05-23T11:53:23.986Z,2.31
2023-05-23T11:54:23.963Z,2.30
2023-05-23T11:55:22.962Z,2.29
2023-05-23T11:56:22.944Z,2.28
2023-05-23T11:57:23.924Z,2.23
2023-05-23T11:58:23.950Z,2.29
2023-05-23T11:59:23.922Z,2.20
2023-05-23T12:00:23.927Z,2.21
2023-05-23T12:01:23.031Z,2.24
2023-05-23T12:02:23.924Z,2.22
2023-05-23T12:03:24.104Z,2.23
2023-05-23T12:04:24.064Z,2.20
2023-05-23T12:05:22.870Z,2.18
2023-05-23T12:06:22.883Z,2.16
2023-05-23T12:07:23.902Z,2.20
2023-05-23T12:08:22.863Z,2.19
2023-05-23T12:09:23.848Z,2.17
2023-05-23T12:10:22.845Z,2.19
2023-05-23T12:11:23.859Z,2.17
2023-05-23T12:12:23.823Z,2.17
2023-05-23T12:13:23.827Z,2.14
2023-05-23T12:14:23.823Z,2.15
2023-05-23T12:15:22.822Z,2.11
2023-05-23T12:16:22.814Z,2.11
2023-05-23T12:17:23.819Z,2.08
2023-05-23T12:18:22.796Z,1.83
2023-05-23T12:19:22.941Z,1.60
2023-05-23T12:20:22.781Z,1.54
2023-05-23T12:21:23.777Z,1.49
2023-05-23T12:22:23.776Z,1.57
2023-05-23T12:23:22.798Z,1.68
2023-05-23T12:24:23.747Z,1.70
2023-05-23T12:25:23.770Z,1.69
2023-05-23T12:26:23.763Z,1.66
2023-05-23T12:27:23.758Z,1.69
2023-05-23T12:28:23.823Z,1.71
2023-05-23T12:29:23.883Z,1.76
2023-05-23T12:30:23.924Z,1.77
2023-05-23T12:31:23.056Z,1.77
2023-05-23T12:32:24.056Z,1.76
2023-05-23T12:33:24.099Z,1.81
2023-05-23T12:34:24.122Z,1.80
2023-05-23T12:35:24.158Z,1.76
2023-05-23T12:36:23.217Z,1.78
2023-05-23T12:37:24.253Z,1.83
2023-05-23T12:38:23.291Z,1.81
2023-05-23T12:39:23.340Z,1.81
2023-05-23T12:40:24.388Z,1.81
2023-05-23T12:41:24.410Z,1.79
2023-05-23T12:42:24.433Z,1.81
2023-05-23T12:43:23.489Z,1.83
2023-05-23T12:44:24.545Z,1.84
2023-05-23T12:45:24.554Z,1.85
2023-05-23T12:46:23.618Z,1.81
2023-05-23T12:47:24.670Z,1.82
2023-05-23T12:48:24.677Z,1.80
2023-05-23T12:49:24.720Z,1.81
2023-05-23T12:50:24.733Z,1.79
2023-05-23T12:51:23.773Z,1.81
2023-05-23T12:52:23.820Z,1.77
2023-05-23T12:53:25.580Z,1.80
2023-05-23T12:54:24.881Z,1.78
2023-05-23T12:55:24.919Z,1.76
2023-05-23T12:56:24.950Z,1.78
2023-05-23T12:57:23.979Z,1.76
2023-05-23T12:58:25.036Z,1.77
2023-05-23T12:59:24.081Z,1.78
2023-05-23T13:00:24.099Z,1.76
2023-05-23T13:01:25.181Z,1.78
2023-05-23T13:02:25.195Z,1.76
2023-05-23T13:03:25.297Z,1.78
2023-05-23T13:04:24.382Z,1.75
2023-05-23T13:05:25.338Z,1.75
2023-05-23T13:06:24.350Z,1.77
2023-05-23T13:07:25.390Z,1.74
2023-05-23T13:08:25.437Z,1.73
2023-05-23T13:09:25.483Z,1.73
2023-05-23T13:10:24.517Z,1.76
2023-05-23T13:11:25.569Z,1.76
2023-05-23T13:12:25.600Z,1.73
2023-05-23T13:13:25.661Z,1.72
2023-05-23T13:14:25.730Z,1.73
2023-05-23T13:15:25.734Z,1.73
2023-05-23T13:16:25.906Z,1.73
2023-05-23T13:17:25.899Z,1.71
2023-05-23T13:18:24.970Z,1.75